| time (UTC) | temp F | wind direction | speed knots | gust knots | rain 1hr in | rain 24hr in | rain mn in | humidity % | barometer mb |
| 20260510174532 | 79 | 119 | 0.9 | 4.3 | 0.00 | 0.13 | 0.00 | 76 | 1017.7 |
| 20260510173038 | 79 | 208 | 2.6 | 4.3 | 0.00 | 0.13 | 0.00 | 72 | 1017.9 |
| 20260510171538 | 78 | 0 | 0.0 | 3.5 | 0.00 | 0.13 | 0.00 | 75 | 1018.1 |
| 20260510170039 | 78 | 0 | 0.0 | 5.2 | 0.00 | 0.13 | 0.00 | 77 | 1018.3 |
| 20260510164534 | 77 | 0 | 0.0 | 2.6 | 0.00 | 0.23 | 0.00 | 80 | 1018.5 |
| 20260510163032 | 75 | 163 | 0.0 | 6.1 | 0.00 | 0.23 | 0.00 | 79 | 1018.3 |
| 20260510161531 | 75 | 0 | 0.0 | 2.6 | 0.00 | 0.23 | 0.00 | 81 | 1018.3 |
| 20260510160033 | 74 | 76 | 0.0 | 5.2 | 0.00 | 0.23 | 0.00 | 83 | 1018.3 |
| 20260510154536 | 73 | 136 | 1.7 | 5.2 | 0.00 | 0.61 | 0.00 | 86 | 1018.4 |
| 20260510153043 | 72 | 0 | 0.0 | 5.2 | 0.00 | 0.61 | 0.00 | 88 | 1018.5 |
| 20260510151536 | 71 | 360 | 0.9 | 3.5 | 0.00 | 0.61 | 0.00 | 90 | 1018.4 |
| 20260510150034 | 70 | 341 | 0.0 | 4.3 | 0.00 | 0.61 | 0.00 | 92 | 1018.5 |
| 20260510144531 | 69 | 0 | 0.9 | 4.3 | 0.00 | 0.99 | 0.00 | 93 | 1018.6 |
| 20260510143041 | 69 | 0 | 0.9 | 3.5 | 0.00 | 0.99 | 0.00 | 94 | 1018.7 |
| 20260510141540 | 67 | 0 | 0.0 | 2.6 | 0.00 | 0.99 | 0.00 | 94 | 1018.7 |
| 20260510140035 | 67 | 0 | 0.0 | 0.0 | 0.00 | 0.99 | 0.00 | 94 | 1018.6 |
| 20260510134532 | 67 | 46 | 0.0 | 2.6 | 0.00 | 1.82 | 0.00 | 94 | 1018.5 |
| 20260510133033 | 65 | 0 | 0.0 | 0.0 | 0.00 | 1.82 | 0.00 | 94 | 1018.3 |
| 20260510131531 | 65 | 0 | 0.0 | 1.7 | 0.00 | 1.82 | 0.00 | 94 | 1018.4 |
| 20260510130045 | 65 | 0 | 0.0 | 3.5 | 0.00 | 1.82 | 0.00 | 94 | 1018.0 |
| 20260510124545 | 64 | 0 | 0.0 | 3.5 | 0.00 | 1.86 | 0.00 | 94 | 1017.9 |
| 20260510123034 | 64 | 102 | 0.9 | 3.5 | 0.00 | 1.86 | 0.00 | 94 | 1017.7 |
| 20260510121535 | 64 | 40 | 0.9 | 2.6 | 0.00 | 1.86 | 0.00 | 94 | 1017.6 |
| 20260510120034 | 64 | 0 | 0.9 | 2.6 | 0.00 | 1.86 | 0.00 | 94 | 1017.3 |
| 20260510114531 | 64 | 0 | 0.0 | 0.0 | 0.00 | 1.86 | 0.00 | 94 | 1017.0 |
| 20260510113030 | 64 | 0 | 0.0 | 0.0 | 0.00 | 1.86 | 0.00 | 94 | 1016.7 |
| 20260510111535 | 64 | 0 | 0.0 | 0.0 | 0.00 | 1.86 | 0.00 | 94 | 1016.4 |
| 20260510110041 | 64 | 0 | 0.0 | 0.0 | 0.00 | 1.86 | 0.00 | 94 | 1016.2 |
| 20260510104534 | 64 | 0 | 0.0 | 0.0 | 0.00 | 1.87 | 0.00 | 94 | 1016.1 |
| 20260510103034 | 64 | 0 | 0.0 | 0.0 | 0.00 | 1.87 | 0.00 | 94 | 1016.0 |
| 20260510101537 | 64 | 0 | 0.0 | 0.0 | 0.00 | 1.87 | 0.00 | 94 | 1015.8 |
| 20260510100032 | 64 | 0 | 0.0 | 0.0 | 0.00 | 1.87 | 0.00 | 94 | 1015.7 |
| 20260510094536 | 64 | 0 | 0.0 | 0.9 | 0.00 | 1.88 | 0.00 | 94 | 1015.5 |
| 20260510093035 | 64 | 5 | 0.9 | 3.5 | 0.00 | 1.88 | 0.00 | 94 | 1015.4 |
| 20260510091537 | 64 | 0 | 0.0 | 1.7 | 0.00 | 1.88 | 0.00 | 94 | 1015.3 |
| 20260510090032 | 65 | 0 | 0.0 | 0.0 | 0.00 | 1.88 | 0.00 | 94 | 1015.1 |
| 20260510084536 | 64 | 0 | 0.0 | 0.0 | 0.00 | 1.88 | 0.00 | 94 | 1014.7 |
| 20260510083045 | 65 | 0 | 0.0 | 0.0 | 0.00 | 1.88 | 0.00 | 94 | 1014.7 |
| 20260510081536 | 65 | 0 | 0.0 | 0.0 | 0.00 | 1.88 | 0.00 | 93 | 1014.4 |
| 20260510080035 | 65 | 0 | 0.0 | 0.0 | 0.00 | 1.88 | 0.00 | 93 | 1014.5 |
| 20260510074535 | 65 | 0 | 0.9 | 3.5 | 0.00 | 1.98 | 0.00 | 93 | 1014.4 |
| 20260510073033 | 65 | 0 | 0.0 | 0.0 | 0.00 | 1.98 | 0.00 | 94 | 1014.3 |
| 20260510071533 | 65 | 0 | 0.0 | 0.0 | 0.00 | 1.98 | 0.00 | 93 | 1014.3 |
| 20260510070036 | 65 | 0 | 0.0 | 0.0 | 0.00 | 1.98 | 0.00 | 93 | 1014.5 |
| 20260510064539 | 65 | 336 | 0.0 | 1.7 | 0.00 | 1.99 | 0.00 | 93 | 1014.5 |
| 20260510063035 | 65 | 0 | 0.0 | 0.0 | 0.00 | 1.99 | 0.00 | 93 | 1014.4 |
| 20260510061536 | 66 | 207 | 0.0 | 3.5 | 0.00 | 1.99 | 0.00 | 94 | 1014.3 |
| 20260510060036 | 66 | 0 | 0.0 | 0.0 | 0.00 | 1.99 | 0.00 | 93 | 1014.1 |
| 20260510054532 | 66 | 0 | 0.0 | 0.0 | 0.00 | 2.00 | 0.00 | 93 | 1014.2 |
| 20260510053030 | 66 | 0 | 0.0 | 0.0 | 0.00 | 2.00 | 0.00 | 93 | 1014.6 |
| 20260510051536 | 66 | 0 | 0.0 | 0.0 | 0.00 | 2.00 | 0.00 | 93 | 1014.6 |
| 20260510050038 | 66 | 0 | 0.0 | 2.6 | 0.00 | 2.00 | 0.00 | 93 | 1014.7 |
| 20260510044535 | 66 | 0 | 0.0 | 2.6 | 0.00 | 2.00 | 2.00 | 93 | 1014.5 |
| 20260510043032 | 66 | 70 | 0.9 | 3.5 | 0.00 | 2.00 | 2.00 | 93 | 1014.8 |
| 20260510041531 | 67 | 0 | 0.0 | 0.0 | 0.00 | 2.00 | 2.00 | 93 | 1015.2 |
| 20260510040035 | 67 | 0 | 0.0 | 0.0 | 0.00 | 2.00 | 2.00 | 93 | 1015.6 |
| 20260510034537 | 67 | 0 | 0.0 | 0.9 | 0.00 | 2.00 | 2.00 | 93 | 1016.0 |
| 20260510033043 | 67 | 0 | 0.0 | 2.6 | 0.00 | 2.00 | 2.00 | 93 | 1015.8 |
| 20260510031535 | 67 | 0 | 0.0 | 0.0 | 0.00 | 2.00 | 2.00 | 93 | 1014.5 |
| 20260510030032 | 67 | 0 | 0.0 | 0.0 | 0.01 | 2.00 | 2.00 | 93 | 1015.1 |
| 20260510024534 | 67 | 0 | 0.0 | 0.0 | 0.01 | 2.00 | 2.00 | 93 | 1015.4 |
| 20260510023034 | 67 | 0 | 0.0 | 0.0 | 0.01 | 2.00 | 2.00 | 93 | 1015.4 |
| 20260510021535 | 67 | 0 | 0.0 | 0.0 | 0.01 | 2.00 | 2.00 | 93 | 1014.4 |
| 20260510020034 | 67 | 0 | 0.0 | 0.0 | 0.00 | 1.99 | 1.99 | 93 | 1014.4 |
| 20260510014535 | 67 | 0 | 0.0 | 0.0 | 0.00 | 2.01 | 1.99 | 93 | 1014.5 |
| 20260510013034 | 67 | 0 | 0.0 | 0.0 | 0.00 | 2.01 | 1.99 | 93 | 1014.8 |
| 20260510011534 | 67 | 0 | 0.0 | 0.0 | 0.01 | 2.01 | 1.99 | 93 | 1014.4 |
| 20260510010035 | 67 | 0 | 0.0 | 0.0 | 0.01 | 2.01 | 1.99 | 93 | 1014.5 |
| 20260510004532 | 67 | 0 | 0.0 | 0.0 | 0.01 | 2.02 | 1.99 | 93 | 1014.4 |
| 20260510003035 | 67 | 0 | 0.0 | 0.0 | 0.01 | 2.02 | 1.99 | 93 | 1014.4 |
| 20260510001532 | 67 | 0 | 0.0 | 0.0 | 0.00 | 2.01 | 1.98 | 93 | 1014.9 |
| 20260510000038 | 67 | 0 | 0.0 | 0.0 | 0.00 | 2.01 | 1.98 | 93 | 1014.8 |
| 20260509234541 | 67 | 0 | 0.0 | 2.6 | 0.00 | 2.04 | 1.98 | 93 | 1013.8 |
| 20260509233030 | 67 | 352 | 1.7 | 3.5 | 0.01 | 2.04 | 1.98 | 93 | 1013.4 |
| 20260509231537 | 67 | 0 | 0.0 | 0.0 | 0.02 | 2.04 | 1.98 | 93 | 1013.4 |
| 20260509230041 | 67 | 0 | 0.0 | 0.0 | 0.05 | 2.04 | 1.98 | 93 | 1013.7 |
| 20260509224545 | 67 | 319 | 0.0 | 4.3 | 0.06 | 2.14 | 1.98 | 93 | 1014.1 |
| 20260509223031 | 67 | 0 | 0.0 | 0.0 | 0.07 | 2.13 | 1.97 | 93 | 1012.9 |
| 20260509221533 | 67 | 0 | 0.0 | 2.6 | 0.06 | 2.11 | 1.96 | 93 | 1013.3 |
| 20260509220034 | 67 | 0 | 0.0 | 1.7 | 0.03 | 2.08 | 1.93 | 93 | 1013.3 |
| 20260509214531 | 67 | 0 | 0.0 | 1.7 | 0.04 | 2.35 | 1.92 | 93 | 1013.6 |
| 20260509213036 | 67 | 0 | 0.0 | 0.0 | 0.02 | 2.33 | 1.90 | 93 | 1013.4 |
| 20260509211534 | 67 | 0 | 0.0 | 2.6 | 0.02 | 2.33 | 1.90 | 93 | 1013.3 |
| 20260509210033 | 67 | 0 | 0.9 | 3.5 | 0.02 | 2.33 | 1.90 | 93 | 1013.6 |
| 20260509204533 | 67 | 0 | 0.0 | 3.5 | 0.00 | 2.91 | 1.88 | 93 | 1013.0 |
| 20260509203051 | 67 | 0 | 0.0 | 1.7 | 0.00 | 2.91 | 1.88 | 93 | 1012.9 |
| 20260509201535 | 67 | 219 | 1.7 | 3.5 | 0.00 | 2.91 | 1.88 | 93 | 1013.3 |
| 20260509200031 | 67 | 0 | 0.0 | 2.6 | 0.00 | 2.91 | 1.88 | 93 | 1013.2 |
| 20260509194533 | 67 | 0 | 0.0 | 0.0 | 0.00 | 3.02 | 1.88 | 93 | 1012.7 |
| 20260509193033 | 67 | 0 | 0.0 | 1.7 | 0.01 | 3.02 | 1.88 | 93 | 1012.2 |
| 20260509191532 | 67 | 348 | 0.9 | 4.3 | 0.01 | 3.02 | 1.88 | 93 | 1012.8 |
| 20260509190032 | 67 | 0 | 0.0 | 0.0 | 0.01 | 3.02 | 1.88 | 93 | 1011.2 |
| 20260509184543 | 68 | 0 | 0.0 | 1.7 | 0.01 | 3.02 | 1.88 | 94 | 1012.8 |
| 20260509183035 | 67 | 0 | 0.0 | 3.5 | 0.00 | 3.01 | 1.87 | 93 | 1012.1 |
| 20260509181534 | 67 | 134 | 0.0 | 2.6 | 0.00 | 3.01 | 1.87 | 93 | 1013.0 |
| 20260509180053 | 66 | 244 | 1.7 | 7.0 | 0.00 | 3.01 | 1.87 | 94 | 1013.0 |